Flight Track Log - Related Links

Times and Time Zones

All times are in EDT time to prevent confusion due to time zone crossing. See the CTL22 flight status page for this flight to view local times or setup timezone preferences in your user account.

Time Position Orientation Groundspeed Altitude Reporting Facility
EDT Latitude Longitude Course Direction KTS MPH feet Rate Location/Type
Wed 08:10:25 PM 42.2008 -85.3631 115° Southeast 152 175 5,000  Level Chicago Center
Wed 08:11:27 PM 42.1814 -85.3106 117° Southeast 154 177 5,700 683 Climbing Chicago Center
Wed 08:12:28 PM 42.1625 -85.2511 113° Southeast 165 190 6,400 683 Climbing Chicago Center
Wed 08:13:00 PM 42.1690 -85.1633 103° East  Level Estimated
Wed 08:13:30 PM 42.1419 -85.1928 115° Southeast 171 197 7,100  Level Chicago Center
Wed 08:14:00 PM 42.1580 -85.0986 103° East  Level Estimated
Wed 08:14:32 PM 42.1197 -85.1314 116° Southeast 177 204 7,100  Level Chicago Center
Wed 08:15:34 PM 42.0969 -85.0639 114° Southeast 191 220 7,100  Level Chicago Center
Wed 08:16:36 PM 42.0731 -84.9967 116° Southeast 197 227 7,100  Level Chicago Center
Wed 08:17:37 PM 42.0431 -84.9161 117° Southeast 198 228 7,100  Level Chicago Center
Wed 08:18:39 PM 42.0175 -84.8503 118° Southeast 198 228 7,100 48 Level Chicago Center
Wed 08:19:43 PM 41.9961 -84.7828 113° Southeast 196 226 7,200 48 Climbing Chicago Center
Wed 08:20:43 PM 41.9783 -84.7131 109° East 196 226 7,200 -49 Level Chicago Center
Wed 08:21:45 PM 41.9558 -84.6458 114° Southeast 196 226 7,100 -48 Descending Chicago Center
Wed 08:22:47 PM 41.9233 -84.5850 126° Southeast 198 228 7,100 48 Level Chicago Center
Wed 08:23:49 PM 41.8986 -84.5172 116° Southeast 200 230 7,200 49 Climbing Chicago Center
Wed 08:24:50 PM 41.8733 -84.4369 113° Southeast 197 227 7,200 49 Level Chicago Center
Wed 08:25:52 PM 41.8528 -84.3678 112° Southeast 197 227 7,300 -48 Climbing Chicago Center
Wed 08:26:54 PM 41.8292 -84.3019 116° Southeast 197 227 7,100 -48 Descending Chicago Center
Wed 08:27:56 PM 41.7997 -84.2389 122° Southeast 196 226 7,200 97 Climbing Chicago Center
Wed 08:28:58 PM 41.7908 -84.1675 99° East 195 224 7,300 48 Climbing Chicago Center
Wed 08:30:00 PM 41.7861 -84.0964 95° East 193 222 7,300  Level Chicago Center

Login

Don't have an account? Register now (free) for customized features, flight alerts, and more!